createdAt,value
2023-03-31T00:00:18.008Z,24.92
2023-03-31T00:01:18.094Z,24.92
2023-03-31T00:02:18.164Z,24.94
2023-03-31T00:03:18.262Z,24.92
2023-03-31T00:04:18.298Z,24.94
2023-03-31T00:05:18.373Z,24.91
2023-03-31T00:06:18.925Z,24.95
2023-03-31T00:07:18.246Z,24.90
2023-03-31T00:08:18.337Z,24.91
2023-03-31T00:09:18.269Z,24.88
2023-03-31T00:10:18.915Z,24.91
2023-03-31T00:11:18.293Z,24.91
2023-03-31T00:12:18.326Z,24.91
2023-03-31T00:13:18.328Z,24.90
2023-03-31T00:14:18.326Z,24.90
2023-03-31T00:15:18.333Z,24.90
2023-03-31T00:16:18.369Z,24.88
2023-03-31T00:17:18.346Z,24.88
2023-03-31T00:18:18.347Z,24.88
2023-03-31T00:19:18.491Z,24.90
2023-03-31T00:20:18.346Z,24.87
2023-03-31T00:21:18.352Z,24.88
2023-03-31T00:22:18.358Z,24.91
2023-03-31T00:23:18.352Z,24.91
2023-03-31T00:24:18.341Z,24.90
2023-03-31T00:25:18.353Z,24.91
2023-03-31T00:26:18.362Z,24.87
2023-03-31T00:27:18.344Z,24.90
2023-03-31T00:28:18.389Z,24.88
2023-03-31T00:29:18.352Z,24.91
2023-03-31T00:30:18.349Z,24.88
2023-03-31T00:31:18.454Z,24.88
2023-03-31T00:32:18.343Z,24.88
2023-03-31T00:33:18.364Z,24.90
2023-03-31T00:34:18.370Z,24.90
2023-03-31T00:35:18.360Z,24.85
2023-03-31T00:36:18.389Z,24.88
2023-03-31T00:37:18.350Z,24.87
2023-03-31T00:38:18.361Z,24.85
2023-03-31T00:39:18.382Z,24.88
2023-03-31T00:40:18.353Z,24.88
2023-03-31T00:41:18.368Z,24.88
2023-03-31T00:42:18.403Z,24.85
2023-03-31T00:43:18.352Z,24.88
2023-03-31T00:44:18.383Z,24.90
2023-03-31T00:45:18.341Z,24.90
2023-03-31T00:46:18.433Z,24.90
2023-03-31T00:47:18.352Z,24.87
2023-03-31T00:48:18.363Z,24.88
2023-03-31T00:49:18.338Z,24.88
2023-03-31T00:50:18.312Z,24.87
2023-03-31T00:51:18.326Z,24.87
2023-03-31T00:52:18.314Z,24.88
2023-03-31T00:53:18.302Z,24.88
2023-03-31T00:54:18.294Z,24.90
2023-03-31T00:55:18.289Z,24.87
2023-03-31T00:56:18.289Z,24.87
2023-03-31T00:57:18.320Z,24.88
2023-03-31T00:58:18.284Z,24.85
2023-03-31T00:59:18.282Z,24.91
2023-03-31T01:00:18.300Z,24.88
2023-03-31T01:01:18.288Z,24.87
2023-03-31T01:02:18.275Z,24.91
2023-03-31T01:03:18.289Z,24.87
2023-03-31T01:04:18.265Z,24.88
2023-03-31T01:05:18.260Z,24.90
2023-03-31T01:06:18.256Z,24.88
2023-03-31T01:07:18.264Z,24.87
2023-03-31T01:08:18.253Z,24.88
2023-03-31T01:09:18.265Z,24.88
2023-03-31T01:10:18.237Z,24.91
2023-03-31T01:11:18.238Z,24.88
2023-03-31T01:12:18.238Z,24.87
2023-03-31T01:13:18.226Z,24.88
2023-03-31T01:14:18.236Z,24.90
2023-03-31T01:15:18.217Z,24.88
2023-03-31T01:16:18.260Z,24.90
2023-03-31T01:17:18.330Z,24.87
2023-03-31T01:18:18.290Z,24.88
2023-03-31T01:19:18.213Z,24.88
2023-03-31T01:20:18.213Z,24.88
2023-03-31T01:21:18.186Z,24.87
2023-03-31T01:22:18.180Z,24.88
2023-03-31T01:23:18.184Z,24.87
2023-03-31T01:24:18.174Z,24.90
2023-03-31T01:25:18.172Z,24.88
2023-03-31T01:26:18.174Z,24.88
2023-03-31T01:27:18.165Z,24.85
2023-03-31T01:28:18.165Z,24.87
2023-03-31T01:29:18.155Z,24.87
2023-03-31T01:30:18.155Z,24.88
2023-03-31T01:31:18.181Z,24.87
2023-03-31T01:32:18.173Z,24.90
2023-03-31T01:33:18.156Z,24.87
2023-03-31T01:34:18.188Z,24.87
2023-03-31T01:35:18.150Z,24.84
2023-03-31T01:36:18.132Z,24.88
2023-03-31T01:37:18.150Z,24.87
2023-03-31T01:38:18.131Z,24.87
2023-03-31T01:39:18.121Z,24.88
2023-03-31T01:40:18.113Z,24.87
2023-03-31T01:41:18.773Z,24.88
2023-03-31T01:42:18.129Z,24.87
2023-03-31T01:43:18.103Z,24.87
2023-03-31T01:44:18.114Z,24.88
2023-03-31T01:45:18.089Z,24.87
2023-03-31T01:46:18.136Z,24.88
2023-03-31T01:47:18.107Z,24.85
2023-03-31T01:48:18.132Z,24.88
2023-03-31T01:49:18.104Z,24.88
2023-03-31T01:50:18.093Z,24.85
2023-03-31T01:51:18.092Z,24.87
2023-03-31T01:52:18.115Z,24.87
2023-03-31T01:53:18.080Z,24.87
2023-03-31T01:54:18.082Z,24.88
2023-03-31T01:55:18.069Z,24.88
2023-03-31T01:56:18.077Z,24.88
2023-03-31T01:57:18.161Z,24.87
2023-03-31T01:58:18.054Z,24.88
2023-03-31T01:59:18.050Z,24.88
2023-03-31T02:00:18.067Z,24.87
2023-03-31T02:01:18.141Z,24.88
2023-03-31T02:02:18.098Z,24.88
2023-03-31T02:03:18.212Z,24.87
2023-03-31T02:04:18.070Z,24.88
2023-03-31T02:05:18.049Z,24.87
2023-03-31T02:06:18.035Z,24.88
2023-03-31T02:07:18.024Z,24.88
2023-03-31T02:08:18.024Z,24.88
2023-03-31T02:09:18.024Z,24.87
2023-03-31T02:10:18.020Z,24.87
2023-03-31T02:11:18.014Z,24.87
2023-03-31T02:12:18.007Z,24.87
2023-03-31T02:13:17.998Z,24.88
2023-03-31T02:14:18.000Z,24.85
2023-03-31T02:15:17.989Z,24.88
2023-03-31T02:16:18.016Z,24.88
2023-03-31T02:17:17.995Z,24.87
2023-03-31T02:18:17.984Z,24.87
2023-03-31T02:19:17.979Z,24.88
2023-03-31T02:20:18.012Z,24.90
2023-03-31T02:21:17.964Z,24.88
2023-03-31T02:22:17.979Z,24.88
2023-03-31T02:23:17.966Z,24.87
2023-03-31T02:24:17.968Z,24.87
2023-03-31T02:25:17.955Z,24.88
2023-03-31T02:26:17.954Z,24.88
2023-03-31T02:27:17.946Z,24.88
2023-03-31T02:28:17.945Z,24.87
2023-03-31T02:29:17.936Z,24.88
2023-03-31T02:30:17.932Z,24.88
2023-03-31T02:31:17.966Z,24.88
2023-03-31T02:32:17.930Z,24.88
2023-03-31T02:33:17.927Z,24.88
2023-03-31T02:34:17.920Z,24.87
2023-03-31T02:35:17.921Z,24.90
2023-03-31T02:36:17.962Z,24.90
2023-03-31T02:37:17.906Z,24.87
2023-03-31T02:38:17.911Z,24.90
2023-03-31T02:39:17.927Z,24.88
2023-03-31T02:40:17.908Z,24.90
2023-03-31T02:41:17.906Z,24.88
2023-03-31T02:42:17.889Z,24.88
2023-03-31T02:43:17.897Z,24.88
2023-03-31T02:44:17.893Z,24.88
2023-03-31T02:45:17.894Z,24.90
2023-03-31T02:46:17.958Z,24.90
2023-03-31T02:47:17.895Z,24.87
2023-03-31T02:48:17.903Z,24.88
2023-03-31T02:49:17.882Z,24.88
2023-03-31T02:50:17.883Z,24.88
2023-03-31T02:51:17.881Z,24.88
2023-03-31T02:52:17.922Z,24.87
2023-03-31T02:53:17.885Z,24.87
2023-03-31T02:54:17.887Z,24.88
2023-03-31T02:55:17.887Z,24.87
2023-03-31T02:56:17.883Z,24.87
2023-03-31T02:57:17.931Z,24.90
2023-03-31T02:58:17.883Z,24.87
2023-03-31T02:59:17.879Z,24.90
2023-03-31T03:00:17.898Z,24.87
2023-03-31T03:01:17.919Z,24.87
2023-03-31T03:02:17.888Z,24.88
2023-03-31T03:03:17.921Z,24.85
2023-03-31T03:04:17.866Z,24.88
2023-03-31T03:05:17.862Z,24.87
2023-03-31T03:06:17.868Z,24.90
2023-03-31T03:07:17.866Z,24.87
2023-03-31T03:08:17.927Z,24.87
2023-03-31T03:09:17.868Z,24.90
2023-03-31T03:10:17.970Z,24.87
2023-03-31T03:11:17.894Z,24.87
2023-03-31T03:12:17.870Z,24.87
2023-03-31T03:13:17.870Z,24.87
2023-03-31T03:14:17.867Z,24.87
2023-03-31T03:15:17.856Z,24.87
2023-03-31T03:16:17.876Z,24.88
2023-03-31T03:17:17.844Z,24.90
2023-03-31T03:18:17.881Z,24.87
2023-03-31T03:19:17.853Z,24.88
2023-03-31T03:20:17.838Z,24.88
2023-03-31T03:21:17.833Z,24.87
2023-03-31T03:22:17.840Z,24.88
2023-03-31T03:23:17.841Z,24.87
2023-03-31T03:24:17.864Z,24.87
2023-03-31T03:25:17.829Z,24.87
2023-03-31T03:26:17.814Z,24.87
2023-03-31T03:27:17.814Z,24.87
2023-03-31T03:28:17.810Z,24.87
2023-03-31T03:29:17.820Z,24.85
2023-03-31T03:30:17.818Z,24.87
2023-03-31T03:31:17.883Z,24.85
2023-03-31T03:32:17.812Z,24.87
2023-03-31T03:33:17.876Z,24.87
2023-03-31T03:34:17.803Z,24.87
2023-03-31T03:35:17.803Z,24.87
2023-03-31T03:36:17.832Z,24.88
2023-03-31T03:37:17.812Z,24.88
2023-03-31T03:38:17.808Z,24.84
2023-03-31T03:39:17.792Z,24.88
2023-03-31T03:40:17.829Z,24.85
2023-03-31T03:41:17.799Z,24.87
2023-03-31T03:42:17.792Z,24.85
2023-03-31T03:43:17.785Z,24.88
2023-03-31T03:44:17.788Z,24.87
2023-03-31T03:45:17.776Z,24.85
2023-03-31T03:46:17.870Z,24.87
2023-03-31T03:47:17.771Z,24.84
2023-03-31T03:48:17.768Z,24.88
2023-03-31T03:49:17.762Z,24.87
2023-03-31T03:50:17.755Z,24.85
2023-03-31T03:51:17.758Z,24.85
2023-03-31T03:52:17.761Z,24.87
2023-03-31T03:53:17.745Z,24.85
2023-03-31T03:54:17.747Z,24.87
2023-03-31T03:55:17.736Z,24.85
2023-03-31T03:56:17.765Z,24.85
2023-03-31T03:57:17.767Z,24.85
2023-03-31T03:58:18.028Z,24.84
2023-03-31T03:59:17.718Z,24.87
2023-03-31T04:00:18.498Z,24.90
2023-03-31T04:01:17.713Z,24.85
2023-03-31T04:02:17.732Z,24.85
2023-03-31T04:03:17.746Z,24.88
2023-03-31T04:04:17.701Z,24.85
2023-03-31T04:05:17.781Z,24.88
2023-03-31T04:06:17.699Z,24.87
2023-03-31T04:07:17.692Z,24.87
2023-03-31T04:08:17.687Z,24.88
2023-03-31T04:09:17.704Z,24.87
2023-03-31T04:10:17.684Z,24.90
2023-03-31T04:11:19.073Z,24.85
2023-03-31T04:12:17.760Z,24.85
2023-03-31T04:13:17.725Z,24.88
2023-03-31T04:14:17.717Z,24.87
2023-03-31T04:15:17.714Z,24.87
2023-03-31T04:16:17.741Z,24.85
2023-03-31T04:17:17.714Z,24.85
2023-03-31T04:18:17.703Z,24.87
2023-03-31T04:19:17.824Z,24.84
2023-03-31T04:20:17.696Z,24.87
2023-03-31T04:21:17.687Z,24.85
2023-03-31T04:22:17.689Z,24.88
2023-03-31T04:23:17.681Z,24.87
2023-03-31T04:24:17.928Z,24.87
2023-03-31T04:25:17.683Z,24.87
2023-03-31T04:26:17.678Z,24.85
2023-03-31T04:27:17.662Z,24.87
2023-03-31T04:28:17.682Z,24.87
2023-03-31T04:29:17.666Z,24.85
2023-03-31T04:30:17.642Z,24.87
2023-03-31T04:31:17.661Z,24.85
2023-03-31T04:32:17.641Z,24.85
2023-03-31T04:33:17.625Z,24.85
2023-03-31T04:34:17.632Z,24.87
2023-03-31T04:35:17.620Z,24.87
2023-03-31T04:36:17.667Z,24.87
2023-03-31T04:37:17.611Z,24.87
2023-03-31T04:38:17.601Z,24.87
2023-03-31T04:39:17.616Z,24.88
2023-03-31T04:40:17.613Z,24.87
2023-03-31T04:41:17.596Z,24.82
2023-03-31T04:42:17.606Z,24.84
2023-03-31T04:43:17.591Z,24.87
2023-03-31T04:44:17.607Z,24.87
2023-03-31T04:45:17.585Z,24.87
2023-03-31T04:46:17.622Z,24.84
2023-03-31T04:47:17.588Z,24.85
2023-03-31T04:48:17.581Z,24.85
2023-03-31T04:49:17.566Z,24.85
2023-03-31T04:50:17.569Z,24.87
2023-03-31T04:51:17.555Z,24.87
2023-03-31T04:52:17.555Z,24.88
2023-03-31T04:53:17.544Z,24.87
2023-03-31T04:54:17.550Z,24.85
2023-03-31T04:55:17.535Z,24.87
2023-03-31T04:56:17.523Z,24.85
2023-03-31T04:57:17.594Z,24.87
2023-03-31T04:58:17.512Z,24.87
2023-03-31T04:59:17.524Z,24.85
2023-03-31T05:00:17.543Z,24.84
2023-03-31T05:01:17.554Z,24.85
2023-03-31T05:02:17.536Z,24.88
2023-03-31T05:03:17.710Z,24.87
2023-03-31T05:04:17.497Z,24.88
2023-03-31T05:05:17.499Z,24.87
2023-03-31T05:06:17.508Z,24.85
2023-03-31T05:07:17.490Z,24.84
2023-03-31T05:08:17.484Z,24.85
2023-03-31T05:09:17.478Z,24.85
2023-03-31T05:10:17.489Z,24.85
2023-03-31T05:11:17.485Z,24.87
2023-03-31T05:12:17.505Z,24.87
2023-03-31T05:13:17.476Z,24.87
2023-03-31T05:14:17.467Z,24.85
2023-03-31T05:15:17.470Z,24.84
2023-03-31T05:16:17.579Z,24.85
2023-03-31T05:17:17.461Z,24.87
2023-03-31T05:18:17.645Z,24.87
2023-03-31T05:19:17.455Z,24.87
2023-03-31T05:20:17.446Z,24.85
2023-03-31T05:21:17.472Z,24.85
2023-03-31T05:22:17.439Z,24.88
2023-03-31T05:23:17.548Z,24.88
2023-03-31T05:24:17.437Z,24.87
2023-03-31T05:25:17.430Z,24.87
2023-03-31T05:26:17.425Z,24.88
2023-03-31T05:27:17.414Z,24.90
2023-03-31T05:28:17.413Z,24.88
2023-03-31T05:29:17.412Z,24.90
2023-03-31T05:30:17.420Z,24.91
2023-03-31T05:31:17.433Z,24.90
2023-03-31T05:32:17.429Z,24.90
2023-03-31T05:33:17.564Z,24.91
2023-03-31T05:34:17.389Z,24.91
2023-03-31T05:35:17.385Z,24.92
2023-03-31T05:36:17.672Z,24.91
2023-03-31T05:37:17.385Z,24.92
2023-03-31T05:38:17.404Z,24.91
2023-03-31T05:39:17.398Z,24.92
2023-03-31T05:40:17.404Z,24.92
2023-03-31T05:41:17.563Z,24.92
2023-03-31T05:42:17.426Z,24.92
2023-03-31T05:43:17.553Z,24.94
2023-03-31T05:44:17.565Z,24.92
2023-03-31T05:45:17.456Z,24.95
2023-03-31T05:46:17.496Z,24.95
2023-03-31T05:47:17.501Z,24.95
2023-03-31T05:48:17.515Z,24.97
2023-03-31T05:49:17.555Z,24.97
2023-03-31T05:50:17.528Z,24.94
2023-03-31T05:51:17.528Z,24.88
2023-03-31T05:52:17.963Z,24.92
2023-03-31T05:53:17.567Z,24.94
2023-03-31T05:54:33.158Z,24.91
2023-03-31T05:55:17.534Z,24.94
2023-03-31T05:56:17.533Z,24.92
2023-03-31T05:57:17.565Z,24.97
2023-03-31T05:58:18.552Z,24.99
2023-03-31T05:59:17.506Z,25.02
2023-03-31T06:00:17.501Z,25.04
2023-03-31T06:01:18.278Z,25.05
2023-03-31T06:02:17.558Z,25.04
2023-03-31T06:03:17.620Z,24.98
2023-03-31T06:04:17.509Z,24.95
2023-03-31T06:05:17.466Z,24.91
2023-03-31T06:06:17.611Z,24.87
2023-03-31T06:07:17.439Z,24.81
2023-03-31T06:08:17.588Z,24.80
2023-03-31T06:09:17.435Z,24.72
2023-03-31T06:10:17.421Z,24.71
2023-03-31T06:11:17.421Z,24.68
2023-03-31T06:12:17.400Z,24.67
2023-03-31T06:13:17.563Z,24.70
2023-03-31T06:14:17.392Z,24.72
2023-03-31T06:15:17.407Z,24.77
2023-03-31T06:16:17.495Z,24.81
2023-03-31T06:17:17.640Z,24.85
2023-03-31T06:18:17.562Z,24.88
2023-03-31T06:19:17.435Z,24.95
2023-03-31T06:20:27.088Z,24.98
2023-03-31T06:21:17.426Z,24.98
2023-03-31T06:22:17.570Z,24.95
2023-03-31T06:23:17.408Z,24.87
2023-03-31T06:24:17.640Z,24.75
2023-03-31T06:25:17.388Z,24.60
2023-03-31T06:26:17.391Z,24.46
2023-03-31T06:27:17.381Z,24.27
2023-03-31T06:28:17.579Z,24.11
2023-03-31T06:29:17.358Z,23.98
2023-03-31T06:30:17.355Z,23.84
2023-03-31T06:31:18.120Z,23.71
2023-03-31T06:32:17.341Z,23.54
2023-03-31T06:33:17.567Z,23.48
2023-03-31T06:34:19.384Z,23.46
2023-03-31T06:35:17.323Z,23.48
2023-03-31T06:36:17.577Z,23.54
2023-03-31T06:37:17.334Z,23.58
2023-03-31T06:38:17.298Z,23.67
2023-03-31T06:39:17.290Z,23.76
2023-03-31T06:40:17.574Z,23.85
2023-03-31T06:41:17.279Z,23.95
2023-03-31T06:42:17.259Z,24.02
2023-03-31T06:43:17.255Z,24.13
2023-03-31T06:44:17.662Z,24.22
2023-03-31T06:45:17.240Z,24.27
2023-03-31T06:46:17.298Z,24.36
2023-03-31T06:47:17.233Z,24.43
2023-03-31T06:48:17.582Z,24.53
2023-03-31T06:49:17.205Z,24.60
2023-03-31T06:50:17.206Z,24.60
2023-03-31T06:51:17.204Z,24.71
2023-03-31T06:52:17.210Z,24.70
2023-03-31T06:53:17.640Z,24.70
2023-03-31T06:54:17.167Z,24.71
2023-03-31T06:55:17.173Z,24.68
2023-03-31T06:56:17.153Z,24.67
2023-03-31T06:57:17.190Z,24.64
2023-03-31T06:58:17.586Z,24.64
2023-03-31T06:59:17.578Z,24.63
2023-03-31T07:00:18.644Z,24.57
2023-03-31T07:01:18.177Z,24.60
2023-03-31T07:02:17.120Z,24.59
2023-03-31T07:03:17.317Z,24.59
2023-03-31T07:04:17.580Z,24.59
2023-03-31T07:05:17.104Z,24.56
2023-03-31T07:06:17.090Z,24.54
2023-03-31T07:07:17.079Z,24.56
2023-03-31T07:08:17.105Z,24.50
2023-03-31T07:09:17.054Z,24.50
2023-03-31T07:10:17.042Z,24.51
2023-03-31T07:11:17.051Z,24.53
2023-03-31T07:12:17.110Z,24.54
2023-03-31T07:13:17.152Z,24.53
2023-03-31T07:14:17.163Z,24.51
2023-03-31T07:15:17.184Z,24.54
2023-03-31T07:16:17.250Z,24.54
2023-03-31T07:17:17.259Z,24.53
2023-03-31T07:18:17.587Z,24.57
2023-03-31T07:19:17.312Z,24.53
2023-03-31T07:20:17.350Z,24.56
2023-03-31T07:21:17.381Z,24.56
2023-03-31T07:22:17.373Z,24.59
2023-03-31T07:23:17.593Z,24.57
2023-03-31T07:24:17.446Z,24.57
2023-03-31T07:25:17.435Z,24.57
2023-03-31T07:26:17.468Z,24.59
2023-03-31T07:27:17.486Z,24.60
2023-03-31T07:28:17.605Z,24.59
2023-03-31T07:29:17.522Z,24.61
2023-03-31T07:30:17.583Z,24.61
2023-03-31T07:31:17.560Z,24.61
2023-03-31T07:32:17.641Z,24.61
2023-03-31T07:33:18.101Z,24.42
2023-03-31T07:34:17.670Z,24.32
2023-03-31T07:35:17.674Z,24.24
2023-03-31T07:36:17.862Z,24.17
2023-03-31T07:37:17.690Z,24.16
2023-03-31T07:38:18.113Z,24.17
2023-03-31T07:39:18.098Z,24.17
2023-03-31T07:40:18.122Z,24.23
2023-03-31T07:41:17.803Z,24.24
2023-03-31T07:42:17.866Z,24.29
2023-03-31T07:43:18.594Z,24.39
2023-03-31T07:44:19.099Z,24.43
2023-03-31T07:45:18.098Z,24.47
2023-03-31T07:46:18.071Z,24.54
2023-03-31T07:47:17.983Z,24.59
2023-03-31T07:48:18.015Z,24.67
2023-03-31T07:49:18.101Z,24.70
2023-03-31T07:50:17.981Z,24.75
2023-03-31T07:51:18.027Z,24.81
2023-03-31T07:52:19.043Z,24.84
2023-03-31T07:53:18.050Z,24.91
2023-03-31T07:54:18.107Z,24.95
2023-03-31T07:55:18.119Z,24.98
2023-03-31T07:56:18.097Z,24.99
2023-03-31T07:57:18.143Z,25.05
2023-03-31T07:58:18.620Z,25.02
2023-03-31T07:59:18.257Z,25.09
2023-03-31T08:00:18.299Z,25.11
2023-03-31T08:01:18.372Z,25.14
2023-03-31T08:02:18.488Z,25.19
2023-03-31T08:03:18.668Z,25.18
2023-03-31T08:04:18.647Z,25.18
2023-03-31T08:05:18.616Z,25.23
2023-03-31T08:06:18.676Z,25.26
2023-03-31T08:07:18.731Z,25.30
2023-03-31T08:08:19.107Z,25.30
2023-03-31T08:09:19.120Z,25.33
2023-03-31T08:10:18.888Z,25.33
2023-03-31T08:11:19.117Z,25.38
2023-03-31T08:12:19.168Z,25.39
2023-03-31T08:13:19.040Z,25.40
2023-03-31T08:14:30.380Z,25.39
2023-03-31T08:15:19.049Z,25.45
2023-03-31T08:16:19.196Z,25.46
2023-03-31T08:17:19.041Z,25.46
2023-03-31T08:18:19.037Z,25.46
2023-03-31T08:19:19.023Z,25.46
2023-03-31T08:20:19.024Z,25.48
2023-03-31T08:21:19.347Z,25.49
2023-03-31T08:22:18.996Z,25.48
2023-03-31T08:23:18.993Z,25.50
2023-03-31T08:24:19.012Z,25.53
2023-03-31T08:25:18.987Z,25.54
2023-03-31T08:26:19.142Z,25.56
2023-03-31T08:27:18.967Z,25.54
2023-03-31T08:28:18.988Z,25.57
2023-03-31T08:29:18.948Z,25.57
2023-03-31T08:30:19.322Z,25.60
2023-03-31T08:31:19.200Z,25.62
2023-03-31T08:32:18.956Z,25.63
2023-03-31T08:33:18.986Z,25.62
2023-03-31T08:34:19.016Z,25.62
2023-03-31T08:35:19.113Z,25.60
2023-03-31T08:36:19.084Z,25.63
2023-03-31T08:37:19.118Z,25.62
2023-03-31T08:38:19.127Z,25.63
2023-03-31T08:39:19.171Z,25.62
2023-03-31T08:40:19.163Z,25.63
2023-03-31T08:41:19.177Z,25.60
2023-03-31T08:42:19.634Z,25.57
2023-03-31T08:43:19.223Z,25.66
2023-03-31T08:44:19.263Z,25.65
2023-03-31T08:45:19.638Z,25.66
2023-03-31T08:46:19.309Z,25.69
2023-03-31T08:47:20.617Z,25.70
2023-03-31T08:48:19.443Z,25.69
2023-03-31T08:49:19.337Z,25.70
2023-03-31T08:50:19.353Z,25.67
2023-03-31T08:51:19.350Z,25.66
2023-03-31T08:52:19.626Z,25.69
2023-03-31T08:53:19.839Z,25.73
2023-03-31T08:54:19.385Z,25.69
2023-03-31T08:55:19.385Z,25.67
2023-03-31T08:56:19.432Z,25.76
2023-03-31T08:57:19.470Z,25.69
2023-03-31T08:58:19.515Z,25.62
2023-03-31T08:59:19.629Z,25.52
2023-03-31T09:00:19.571Z,25.42
2023-03-31T09:01:19.683Z,25.33
2023-03-31T09:02:23.031Z,25.25
2023-03-31T09:03:19.809Z,25.15
2023-03-31T09:04:19.749Z,25.08
2023-03-31T09:05:19.597Z,24.98
2023-03-31T09:06:19.633Z,24.90
2023-03-31T09:07:19.586Z,24.84
2023-03-31T09:08:19.573Z,24.78
2023-03-31T09:09:19.551Z,24.74
2023-03-31T09:10:20.636Z,24.70
2023-03-31T09:11:19.537Z,24.66
2023-03-31T09:12:19.557Z,24.67
2023-03-31T09:13:19.637Z,24.64
2023-03-31T09:14:19.528Z,24.66
2023-03-31T09:15:19.508Z,24.64
2023-03-31T09:16:19.565Z,24.66
2023-03-31T09:17:19.501Z,24.66
2023-03-31T09:18:19.643Z,24.67
2023-03-31T09:19:19.491Z,24.70
2023-03-31T09:20:19.536Z,24.68
2023-03-31T09:21:19.590Z,24.70
2023-03-31T09:22:19.615Z,24.70
2023-03-31T09:23:20.185Z,24.72
2023-03-31T09:24:19.707Z,24.74
2023-03-31T09:25:19.735Z,24.71
2023-03-31T09:26:20.178Z,24.72
2023-03-31T09:27:19.814Z,24.74
2023-03-31T09:28:19.849Z,24.74
2023-03-31T09:29:20.166Z,24.75
2023-03-31T09:30:19.945Z,24.74
2023-03-31T09:31:20.028Z,24.74
2023-03-31T09:32:20.060Z,24.51
2023-03-31T09:33:20.094Z,24.57
2023-03-31T09:34:20.160Z,24.59
2023-03-31T09:35:20.201Z,24.57
2023-03-31T09:36:20.214Z,24.57
2023-03-31T09:37:20.180Z,24.59
2023-03-31T09:38:20.681Z,24.61
2023-03-31T09:39:20.280Z,24.67
2023-03-31T09:40:20.379Z,24.71
2023-03-31T09:41:20.375Z,24.78
2023-03-31T09:42:20.431Z,24.82
2023-03-31T09:43:20.666Z,24.84
2023-03-31T09:44:20.431Z,24.91
2023-03-31T09:45:20.413Z,24.94
2023-03-31T09:46:20.806Z,25.05
2023-03-31T09:47:20.653Z,25.08
2023-03-31T09:48:20.579Z,25.11
2023-03-31T09:49:20.683Z,25.08
2023-03-31T09:50:20.737Z,24.99
2023-03-31T09:51:20.574Z,24.87
2023-03-31T09:52:20.569Z,24.78
2023-03-31T09:53:20.578Z,24.71
2023-03-31T09:54:21.164Z,24.67
2023-03-31T09:55:32.083Z,24.66
2023-03-31T09:56:20.529Z,24.66
2023-03-31T09:57:20.603Z,24.64
2023-03-31T09:58:20.576Z,24.68
2023-03-31T09:59:20.497Z,24.70
2023-03-31T10:00:20.518Z,24.74
2023-03-31T10:01:20.539Z,24.75
2023-03-31T10:02:20.471Z,24.78
2023-03-31T10:03:20.463Z,24.84
2023-03-31T10:04:20.557Z,24.84
2023-03-31T10:05:20.668Z,24.87
2023-03-31T10:06:20.439Z,24.91
2023-03-31T10:07:20.435Z,24.92
2023-03-31T10:08:20.526Z,24.94
2023-03-31T10:09:20.435Z,24.97
2023-03-31T10:10:20.695Z,24.99
2023-03-31T10:11:20.425Z,25.01
2023-03-31T10:12:20.462Z,25.02
2023-03-31T10:13:20.435Z,25.04
2023-03-31T10:14:20.392Z,25.07
2023-03-31T10:15:20.662Z,25.11
2023-03-31T10:16:20.721Z,25.15
2023-03-31T10:17:20.382Z,25.17
2023-03-31T10:18:20.488Z,25.19
2023-03-31T10:19:20.380Z,25.29
2023-03-31T10:20:20.697Z,25.28
2023-03-31T10:21:20.343Z,25.32
2023-03-31T10:22:20.341Z,25.35
2023-03-31T10:23:20.340Z,25.35
2023-03-31T10:24:20.326Z,25.39
2023-03-31T10:25:20.670Z,25.43
2023-03-31T10:26:20.342Z,25.46
2023-03-31T10:27:20.671Z,25.49
2023-03-31T10:28:21.196Z,25.49
2023-03-31T10:29:20.280Z,25.56
2023-03-31T10:30:20.668Z,25.56
2023-03-31T10:31:20.795Z,25.54
2023-03-31T10:32:20.260Z,25.57
2023-03-31T10:33:23.201Z,25.62
2023-03-31T10:34:20.254Z,25.59
2023-03-31T10:35:20.671Z,25.63
2023-03-31T10:36:20.296Z,25.62
2023-03-31T10:37:20.227Z,25.57
2023-03-31T10:38:20.234Z,25.56
2023-03-31T10:39:20.683Z,25.57
2023-03-31T10:40:20.212Z,25.56
2023-03-31T10:41:20.727Z,25.49
2023-03-31T10:42:20.204Z,25.50
2023-03-31T10:43:20.193Z,25.50
2023-03-31T10:44:20.169Z,25.50
2023-03-31T10:45:33.516Z,25.50
2023-03-31T10:46:20.200Z,25.48
2023-03-31T10:47:20.152Z,25.46
2023-03-31T10:48:20.221Z,25.43
2023-03-31T10:49:20.139Z,25.45
2023-03-31T10:50:20.204Z,25.42
2023-03-31T10:51:20.132Z,25.38
2023-03-31T10:52:20.200Z,25.39
2023-03-31T10:53:20.124Z,25.32
2023-03-31T10:54:20.097Z,25.28
2023-03-31T10:55:20.097Z,25.12
2023-03-31T10:56:20.078Z,24.92
2023-03-31T10:57:20.137Z,24.80
2023-03-31T10:58:20.062Z,24.63
2023-03-31T10:59:20.076Z,24.59
2023-03-31T11:00:20.051Z,24.53
2023-03-31T11:01:20.063Z,24.54
2023-03-31T11:02:20.103Z,24.54
2023-03-31T11:03:20.149Z,24.56
2023-03-31T11:04:20.031Z,24.60
2023-03-31T11:05:20.019Z,24.63
2023-03-31T11:06:20.186Z,24.70
2023-03-31T11:07:20.028Z,24.74
2023-03-31T11:08:20.376Z,24.78
2023-03-31T11:09:20.060Z,24.85
2023-03-31T11:10:19.982Z,24.88
2023-03-31T11:11:20.179Z,24.91
2023-03-31T11:12:20.990Z,24.99
2023-03-31T11:13:19.993Z,25.02
2023-03-31T11:14:19.989Z,25.05
2023-03-31T11:15:19.964Z,25.08
2023-03-31T11:16:20.243Z,25.12
2023-03-31T11:17:20.038Z,25.17
2023-03-31T11:18:19.925Z,25.21
2023-03-31T11:19:19.964Z,25.23
2023-03-31T11:20:20.019Z,25.25
2023-03-31T11:21:20.185Z,25.25
2023-03-31T11:22:20.115Z,25.28
2023-03-31T11:23:20.165Z,25.29
2023-03-31T11:24:20.237Z,25.32
2023-03-31T11:25:20.709Z,25.36
2023-03-31T11:26:20.699Z,25.38
2023-03-31T11:27:20.327Z,25.42
2023-03-31T11:28:20.366Z,25.45
2023-03-31T11:29:20.416Z,25.43
2023-03-31T11:30:20.687Z,25.49
2023-03-31T11:31:20.583Z,25.48
2023-03-31T11:32:20.577Z,25.49
2023-03-31T11:33:20.517Z,25.52
2023-03-31T11:34:20.544Z,25.50
2023-03-31T11:35:20.575Z,25.49
2023-03-31T11:36:20.730Z,25.54
2023-03-31T11:37:20.639Z,25.56
2023-03-31T11:38:23.319Z,25.57
2023-03-31T11:39:20.645Z,25.59
2023-03-31T11:40:20.694Z,25.56
2023-03-31T11:41:20.707Z,25.59
2023-03-31T11:42:20.620Z,25.60
2023-03-31T11:43:20.622Z,25.53
2023-03-31T11:44:20.599Z,25.62
2023-03-31T11:45:20.628Z,25.57
2023-03-31T11:46:20.670Z,25.54
2023-03-31T11:47:20.582Z,25.60
2023-03-31T11:48:20.619Z,25.59
2023-03-31T11:49:20.574Z,25.59
2023-03-31T11:50:20.570Z,25.63
2023-03-31T11:51:20.552Z,25.65
2023-03-31T11:52:20.700Z,25.66
2023-03-31T11:53:20.541Z,25.66
2023-03-31T11:54:20.537Z,25.66
2023-03-31T11:55:20.547Z,25.65
2023-03-31T11:56:20.550Z,25.69
2023-03-31T11:57:20.571Z,25.67
2023-03-31T11:58:20.511Z,25.67
2023-03-31T11:59:20.500Z,25.73
2023-03-31T12:00:20.525Z,25.67
2023-03-31T12:01:20.483Z,25.75
2023-03-31T12:02:20.485Z,25.73
2023-03-31T12:03:20.874Z,25.76
2023-03-31T12:04:20.495Z,25.77
2023-03-31T12:05:20.625Z,25.76
2023-03-31T12:06:20.470Z,25.73
2023-03-31T12:07:20.717Z,25.73
2023-03-31T12:08:20.455Z,25.75
2023-03-31T12:09:20.437Z,25.67
2023-03-31T12:10:20.418Z,25.73
2023-03-31T12:11:20.417Z,25.72
2023-03-31T12:12:20.770Z,25.73
2023-03-31T12:13:20.408Z,25.75
2023-03-31T12:14:20.405Z,25.77
2023-03-31T12:15:20.405Z,25.75
2023-03-31T12:16:20.474Z,25.75
2023-03-31T12:17:20.386Z,25.72
2023-03-31T12:18:20.374Z,25.77
2023-03-31T12:19:20.353Z,25.77
2023-03-31T12:20:20.371Z,25.76
2023-03-31T12:21:20.342Z,25.80
2023-03-31T12:22:20.339Z,25.75
2023-03-31T12:23:20.335Z,25.75
2023-03-31T12:24:20.338Z,25.73
2023-03-31T12:25:20.326Z,25.80
2023-03-31T12:26:20.311Z,25.79
2023-03-31T12:27:20.715Z,25.79
2023-03-31T12:28:20.334Z,25.83
2023-03-31T12:29:20.282Z,25.81
2023-03-31T12:30:20.286Z,25.80
2023-03-31T12:31:20.317Z,25.62
2023-03-31T12:32:20.279Z,25.56
2023-03-31T12:33:20.259Z,25.49
2023-03-31T12:34:20.266Z,25.45
2023-03-31T12:35:20.258Z,25.42
2023-03-31T12:36:20.273Z,25.43
2023-03-31T12:37:20.736Z,25.46
2023-03-31T12:38:20.232Z,25.40
2023-03-31T12:39:20.263Z,25.40
2023-03-31T12:40:20.282Z,25.38
2023-03-31T12:41:20.299Z,25.36
2023-03-31T12:42:21.312Z,25.30
2023-03-31T12:43:20.306Z,25.33
2023-03-31T12:44:20.315Z,25.29
2023-03-31T12:45:20.285Z,25.30
2023-03-31T12:46:20.294Z,25.32
2023-03-31T12:47:20.758Z,25.36
2023-03-31T12:48:20.265Z,25.33
2023-03-31T12:49:20.273Z,25.35
2023-03-31T12:50:20.251Z,25.36
2023-03-31T12:51:20.253Z,25.38
2023-03-31T12:52:20.730Z,25.40